Terminal Aerodrome Forecast
Issued by NWS

Home | Current Version | Previous Version | Text Only | Print | Product List | Glossary On
Versions: 1 2 3 4 5 6 7 8 9 10 11 12 13 14 15 16 17 18 19 20 21 22 23 24 25 26 27 28 29 30
000
FTUS42 KGSP 092300
TAFAND
TAF
KAND 092323Z 1000/1024 26005KT P6SM VCTS SCT050CB
     FM100200 28003KT P6SM BKN070
     FM101100 34003KT 3SM BR BKN150
     FM101300 09005KT P6SM BKN045
     FM101900 22004KT P6SM BKN040 PROB30 1019/1021 4SM TSRA
      BKN030CB=

USA.gov is the U.S. government's official web portal to all federal, state and local government web resources and services.